Portada
METAR-TAF:

METAR-TAF

Aeropuertos :

Aeropuerto Internacional de Basora

Basora, Iraq

latitud: 30-32-56N, longitud: 47-39-45E, altitud: 1 m

Observación

El informe se hizo hace 32 minutos, a las 23:00 UTC
Viento 10 kt del este-sureste
Temperatura 12°C
Humedad 71%
Presión 1018 hPa
Visibilidad 10 km o más
sin nubes por debajo de 1500 m y sin presencia de cumulonimbus.

METAR: ORMM 242300Z 11010KT CAVOK 12/07 Q1018 NOSIG

Hora: 02:32 (23:32 UTC)

Pronóstico

El informe se hizo hace 7 horas y 32 minutos, a las 16:00 UTC
Pronóstico válido del 24 a las 18 UTC al 25 a las 18 UTC
Viento 10 kt del oeste
Visibilidad: 8000 m
Nubes dispersas a una altura de 4000 ft
Cielo nuboso a una altura de 10000 ft

TAF: ORMM 241600Z 2418/2518 12008KT 8000 NSC TEMOP 2500/2506 26010KT SCT040 BKN100

Observaciones y pronósticos meteorológicos de más de 4000 aeropuertos (mensajes METAR y TAF).

Los puntos amarillos y rojos representan las estaciones disponibles.

Ponga el ratón en el punto deseado para ver el nombre de la estación.

Haga clic para ver las observaciones y los pronósticos meteorológicos.

Para cambiar el mapa : haga clic en los botones verdes con una cruz de color negro para hacer un zoom, en el botón verde con un guión para alejar o en las flechas verdes para mapas adyacentes.


METAR-TAF: